sensor_id;sensor_type;location;lat;lon;timestamp;temperature;humidity
20297;DHT22;10307;40.100;18.336;2022-12-07T00:01:35;12.60;99.90
20297;DHT22;10307;40.100;18.336;2022-12-07T00:04:04;12.60;99.90
20297;DHT22;10307;40.100;18.336;2022-12-07T00:06:32;12.60;99.90
20297;DHT22;10307;40.100;18.336;2022-12-07T00:08:59;12.60;99.90
20297;DHT22;10307;40.100;18.336;2022-12-07T00:11:27;12.60;99.90
20297;DHT22;10307;40.100;18.336;2022-12-07T00:13:56;12.60;99.90
20297;DHT22;10307;40.100;18.336;2022-12-07T00:16:25;12.50;99.90
20297;DHT22;10307;40.100;18.336;2022-12-07T00:18:53;12.50;99.90
20297;DHT22;10307;40.100;18.336;2022-12-07T00:21:25;12.60;99.90
20297;DHT22;10307;40.100;18.336;2022-12-07T00:23:52;12.50;99.90
20297;DHT22;10307;40.100;18.336;2022-12-07T00:26:22;12.50;99.90
20297;DHT22;10307;40.100;18.336;2022-12-07T00:28:51;12.50;99.90
20297;DHT22;10307;40.100;18.336;2022-12-07T00:31:19;12.50;99.90
20297;DHT22;10307;40.100;18.336;2022-12-07T00:33:47;12.50;99.90
20297;DHT22;10307;40.100;18.336;2022-12-07T00:36:16;12.50;99.90
20297;DHT22;10307;40.100;18.336;2022-12-07T00:38:43;12.50;99.90
20297;DHT22;10307;40.100;18.336;2022-12-07T00:41:15;12.50;99.90
20297;DHT22;10307;40.100;18.336;2022-12-07T00:43:43;12.50;99.90
20297;DHT22;10307;40.100;18.336;2022-12-07T00:46:10;12.50;99.90
20297;DHT22;10307;40.100;18.336;2022-12-07T00:48:37;12.50;99.90
20297;DHT22;10307;40.100;18.336;2022-12-07T00:51:05;12.40;99.90
20297;DHT22;10307;40.100;18.336;2022-12-07T00:53:34;12.40;99.90
20297;DHT22;10307;40.100;18.336;2022-12-07T00:56:09;12.40;99.90
20297;DHT22;10307;40.100;18.336;2022-12-07T00:58:35;12.40;99.90
20297;DHT22;10307;40.100;18.336;2022-12-07T01:01:02;12.40;99.90
20297;DHT22;10307;40.100;18.336;2022-12-07T01:03:29;12.40;99.90
20297;DHT22;10307;40.100;18.336;2022-12-07T01:05:56;12.40;99.90
20297;DHT22;10307;40.100;18.336;2022-12-07T01:08:24;12.30;99.90
20297;DHT22;10307;40.100;18.336;2022-12-07T01:11:02;12.30;99.90
20297;DHT22;10307;40.100;18.336;2022-12-07T01:13:29;12.30;99.90
20297;DHT22;10307;40.100;18.336;2022-12-07T01:15:59;12.30;99.90
20297;DHT22;10307;40.100;18.336;2022-12-07T01:18:28;12.20;99.90
20297;DHT22;10307;40.100;18.336;2022-12-07T01:20:59;12.20;99.90
20297;DHT22;10307;40.100;18.336;2022-12-07T01:23:26;12.20;99.90
20297;DHT22;10307;40.100;18.336;2022-12-07T01:26:01;12.20;99.90
20297;DHT22;10307;40.100;18.336;2022-12-07T01:28:29;12.20;99.90
20297;DHT22;10307;40.100;18.336;2022-12-07T01:33:30;12.10;99.90
20297;DHT22;10307;40.100;18.336;2022-12-07T01:38:46;12.10;99.90
20297;DHT22;10307;40.100;18.336;2022-12-07T01:41:14;12.00;99.90
20297;DHT22;10307;40.100;18.336;2022-12-07T01:44:10;12.00;99.90
20297;DHT22;10307;40.100;18.336;2022-12-07T01:46:37;12.00;99.90
20297;DHT22;10307;40.100;18.336;2022-12-07T01:49:06;12.00;99.90
20297;DHT22;10307;40.100;18.336;2022-12-07T01:51:34;12.00;99.90
20297;DHT22;10307;40.100;18.336;2022-12-07T01:54:03;12.00;99.90
20297;DHT22;10307;40.100;18.336;2022-12-07T01:56:31;11.90;99.90
20297;DHT22;10307;40.100;18.336;2022-12-07T01:58:59;12.00;99.90
20297;DHT22;10307;40.100;18.336;2022-12-07T02:01:26;11.90;99.90
20297;DHT22;10307;40.100;18.336;2022-12-07T02:03:53;11.90;99.90
20297;DHT22;10307;40.100;18.336;2022-12-07T02:06:23;11.90;99.90
20297;DHT22;10307;40.100;18.336;2022-12-07T02:08:50;11.90;99.90
20297;DHT22;10307;40.100;18.336;2022-12-07T02:11:17;11.90;99.90
20297;DHT22;10307;40.100;18.336;2022-12-07T02:13:45;11.90;99.90
20297;DHT22;10307;40.100;18.336;2022-12-07T02:19:39;11.90;99.90
20297;DHT22;10307;40.100;18.336;2022-12-07T02:31:00;11.90;99.90
20297;DHT22;10307;40.100;18.336;2022-12-07T02:33:43;11.90;99.90
20297;DHT22;10307;40.100;18.336;2022-12-07T02:36:20;11.90;99.90
20297;DHT22;10307;40.100;18.336;2022-12-07T02:38:58;11.90;99.90
20297;DHT22;10307;40.100;18.336;2022-12-07T02:41:36;11.80;99.90
20297;DHT22;10307;40.100;18.336;2022-12-07T02:44:13;11.80;99.90
20297;DHT22;10307;40.100;18.336;2022-12-07T02:47:00;11.70;99.90
20297;DHT22;10307;40.100;18.336;2022-12-07T02:49:28;11.70;99.90
20297;DHT22;10307;40.100;18.336;2022-12-07T02:51:55;11.70;99.90
20297;DHT22;10307;40.100;18.336;2022-12-07T02:54:22;11.70;99.90
20297;DHT22;10307;40.100;18.336;2022-12-07T03:08:13;11.60;99.90
20297;DHT22;10307;40.100;18.336;2022-12-07T03:10:59;11.60;99.90
20297;DHT22;10307;40.100;18.336;2022-12-07T03:16:19;11.60;99.90
20297;DHT22;10307;40.100;18.336;2022-12-07T03:21:19;11.60;99.90
20297;DHT22;10307;40.100;18.336;2022-12-07T03:23:50;11.50;99.90
20297;DHT22;10307;40.100;18.336;2022-12-07T03:26:19;11.50;99.90
20297;DHT22;10307;40.100;18.336;2022-12-07T03:28:52;11.50;99.90
20297;DHT22;10307;40.100;18.336;2022-12-07T03:31:25;11.50;99.90
20297;DHT22;10307;40.100;18.336;2022-12-07T03:34:06;11.50;99.90
20297;DHT22;10307;40.100;18.336;2022-12-07T03:36:49;11.40;99.90
20297;DHT22;10307;40.100;18.336;2022-12-07T03:39:27;11.40;99.90
20297;DHT22;10307;40.100;18.336;2022-12-07T03:41:56;11.40;99.90
20297;DHT22;10307;40.100;18.336;2022-12-07T03:44:24;11.30;99.90
20297;DHT22;10307;40.100;18.336;2022-12-07T03:49:49;11.30;99.90
20297;DHT22;10307;40.100;18.336;2022-12-07T03:52:36;11.30;99.90
20297;DHT22;10307;40.100;18.336;2022-12-07T03:55:18;11.30;99.90
20297;DHT22;10307;40.100;18.336;2022-12-07T03:57:48;11.30;99.90
20297;DHT22;10307;40.100;18.336;2022-12-07T04:00:16;11.20;99.90
20297;DHT22;10307;40.100;18.336;2022-12-07T04:02:43;11.20;99.90
20297;DHT22;10307;40.100;18.336;2022-12-07T04:05:11;11.20;99.90
20297;DHT22;10307;40.100;18.336;2022-12-07T04:07:37;11.20;99.90
20297;DHT22;10307;40.100;18.336;2022-12-07T04:10:04;11.20;99.90
20297;DHT22;10307;40.100;18.336;2022-12-07T04:12:31;11.10;99.90
20297;DHT22;10307;40.100;18.336;2022-12-07T04:14:57;11.10;99.90
20297;DHT22;10307;40.100;18.336;2022-12-07T04:17:23;11.10;99.90
20297;DHT22;10307;40.100;18.336;2022-12-07T04:19:49;11.10;99.90
20297;DHT22;10307;40.100;18.336;2022-12-07T04:22:16;11.10;99.90
20297;DHT22;10307;40.100;18.336;2022-12-07T04:24:42;11.20;99.90
20297;DHT22;10307;40.100;18.336;2022-12-07T04:27:08;11.20;99.90
20297;DHT22;10307;40.100;18.336;2022-12-07T04:29:35;11.20;99.90
20297;DHT22;10307;40.100;18.336;2022-12-07T04:32:01;11.20;99.90
20297;DHT22;10307;40.100;18.336;2022-12-07T04:34:28;11.20;99.90
20297;DHT22;10307;40.100;18.336;2022-12-07T04:36:54;11.20;99.90
20297;DHT22;10307;40.100;18.336;2022-12-07T04:39:28;11.20;99.90
20297;DHT22;10307;40.100;18.336;2022-12-07T04:41:56;11.20;99.90
20297;DHT22;10307;40.100;18.336;2022-12-07T04:44:23;11.20;99.90
20297;DHT22;10307;40.100;18.336;2022-12-07T04:46:51;11.20;99.90
20297;DHT22;10307;40.100;18.336;2022-12-07T04:49:18;11.20;99.90
20297;DHT22;10307;40.100;18.336;2022-12-07T04:51:45;11.20;99.90
20297;DHT22;10307;40.100;18.336;2022-12-07T04:54:13;11.20;99.90
20297;DHT22;10307;40.100;18.336;2022-12-07T04:56:39;11.20;99.90
20297;DHT22;10307;40.100;18.336;2022-12-07T04:59:06;11.20;99.90
20297;DHT22;10307;40.100;18.336;2022-12-07T05:01:32;11.10;99.90
20297;DHT22;10307;40.100;18.336;2022-12-07T05:03:59;11.10;99.90
20297;DHT22;10307;40.100;18.336;2022-12-07T05:06:26;11.10;99.90
20297;DHT22;10307;40.100;18.336;2022-12-07T05:08:52;11.10;99.90
20297;DHT22;10307;40.100;18.336;2022-12-07T05:11:18;11.10;99.90
20297;DHT22;10307;40.100;18.336;2022-12-07T05:14:10;11.10;99.90
20297;DHT22;10307;40.100;18.336;2022-12-07T05:16:37;11.10;99.90
20297;DHT22;10307;40.100;18.336;2022-12-07T05:19:03;11.10;99.90
20297;DHT22;10307;40.100;18.336;2022-12-07T05:21:30;11.10;99.90
20297;DHT22;10307;40.100;18.336;2022-12-07T05:23:59;11.10;99.90
20297;DHT22;10307;40.100;18.336;2022-12-07T05:26:26;11.10;99.90
20297;DHT22;10307;40.100;18.336;2022-12-07T05:28:54;11.10;99.90
20297;DHT22;10307;40.100;18.336;2022-12-07T05:31:21;11.00;99.90
20297;DHT22;10307;40.100;18.336;2022-12-07T05:33:48;11.00;99.90
20297;DHT22;10307;40.100;18.336;2022-12-07T05:36:14;11.00;99.90
20297;DHT22;10307;40.100;18.336;2022-12-07T05:38:41;11.00;99.90
20297;DHT22;10307;40.100;18.336;2022-12-07T05:41:09;11.00;99.90
20297;DHT22;10307;40.100;18.336;2022-12-07T05:43:57;11.00;99.90
20297;DHT22;10307;40.100;18.336;2022-12-07T05:46:24;10.90;99.90
20297;DHT22;10307;40.100;18.336;2022-12-07T05:48:50;10.90;99.90
20297;DHT22;10307;40.100;18.336;2022-12-07T05:51:17;11.00;99.90
20297;DHT22;10307;40.100;18.336;2022-12-07T05:53:44;11.00;99.90
20297;DHT22;10307;40.100;18.336;2022-12-07T05:56:11;11.00;99.90
20297;DHT22;10307;40.100;18.336;2022-12-07T05:58:37;11.00;99.90
20297;DHT22;10307;40.100;18.336;2022-12-07T06:01:23;11.00;99.90
20297;DHT22;10307;40.100;18.336;2022-12-07T06:03:49;11.10;99.90
20297;DHT22;10307;40.100;18.336;2022-12-07T06:06:15;11.10;99.90
20297;DHT22;10307;40.100;18.336;2022-12-07T06:08:42;11.10;99.90
20297;DHT22;10307;40.100;18.336;2022-12-07T06:11:08;11.10;99.90
20297;DHT22;10307;40.100;18.336;2022-12-07T06:13:53;11.10;99.90
20297;DHT22;10307;40.100;18.336;2022-12-07T06:16:19;11.10;99.90
20297;DHT22;10307;40.100;18.336;2022-12-07T06:18:45;11.00;99.90
20297;DHT22;10307;40.100;18.336;2022-12-07T06:21:12;11.00;99.90
20297;DHT22;10307;40.100;18.336;2022-12-07T06:23:38;11.10;99.90
20297;DHT22;10307;40.100;18.336;2022-12-07T06:26:05;11.10;99.90
20297;DHT22;10307;40.100;18.336;2022-12-07T06:28:31;11.10;99.90
20297;DHT22;10307;40.100;18.336;2022-12-07T06:30:59;11.10;99.90
20297;DHT22;10307;40.100;18.336;2022-12-07T06:33:26;11.10;99.90
20297;DHT22;10307;40.100;18.336;2022-12-07T06:35:53;11.10;99.90
20297;DHT22;10307;40.100;18.336;2022-12-07T06:38:19;11.20;99.90
20297;DHT22;10307;40.100;18.336;2022-12-07T06:40:45;11.10;99.90
20297;DHT22;10307;40.100;18.336;2022-12-07T06:43:12;11.20;99.90
20297;DHT22;10307;40.100;18.336;2022-12-07T06:45:38;11.20;99.90
20297;DHT22;10307;40.100;18.336;2022-12-07T06:48:05;11.20;99.90
20297;DHT22;10307;40.100;18.336;2022-12-07T06:50:31;11.20;99.90
20297;DHT22;10307;40.100;18.336;2022-12-07T06:52:57;11.20;99.90
20297;DHT22;10307;40.100;18.336;2022-12-07T06:55:24;11.30;99.90
20297;DHT22;10307;40.100;18.336;2022-12-07T06:57:50;11.30;99.90
20297;DHT22;10307;40.100;18.336;2022-12-07T07:00:16;11.30;99.90
20297;DHT22;10307;40.100;18.336;2022-12-07T07:02:43;11.30;99.90
20297;DHT22;10307;40.100;18.336;2022-12-07T07:05:09;11.40;99.90
20297;DHT22;10307;40.100;18.336;2022-12-07T07:07:36;11.50;99.90
20297;DHT22;10307;40.100;18.336;2022-12-07T07:10:03;11.50;99.90
20297;DHT22;10307;40.100;18.336;2022-12-07T07:12:29;11.50;99.90
20297;DHT22;10307;40.100;18.336;2022-12-07T07:14:55;11.60;99.90
20297;DHT22;10307;40.100;18.336;2022-12-07T07:17:22;11.70;99.90
20297;DHT22;10307;40.100;18.336;2022-12-07T07:19:48;11.70;99.90
20297;DHT22;10307;40.100;18.336;2022-12-07T07:22:15;11.80;99.90
20297;DHT22;10307;40.100;18.336;2022-12-07T07:24:41;11.90;99.90
20297;DHT22;10307;40.100;18.336;2022-12-07T07:27:07;12.00;99.90
20297;DHT22;10307;40.100;18.336;2022-12-07T07:29:34;12.00;99.90
20297;DHT22;10307;40.100;18.336;2022-12-07T07:32:00;12.10;99.90
20297;DHT22;10307;40.100;18.336;2022-12-07T07:34:27;12.10;99.90
20297;DHT22;10307;40.100;18.336;2022-12-07T07:36:53;12.20;99.90
20297;DHT22;10307;40.100;18.336;2022-12-07T07:39:20;12.20;99.90
20297;DHT22;10307;40.100;18.336;2022-12-07T07:41:46;12.20;99.90
20297;DHT22;10307;40.100;18.336;2022-12-07T07:44:23;12.30;99.90
20297;DHT22;10307;40.100;18.336;2022-12-07T07:46:49;12.40;99.90
20297;DHT22;10307;40.100;18.336;2022-12-07T07:49:16;12.40;99.90
20297;DHT22;10307;40.100;18.336;2022-12-07T07:51:42;12.50;99.90
20297;DHT22;10307;40.100;18.336;2022-12-07T07:54:08;12.60;99.90
20297;DHT22;10307;40.100;18.336;2022-12-07T07:56:35;12.60;99.90
20297;DHT22;10307;40.100;18.336;2022-12-07T07:59:01;12.70;99.90
20297;DHT22;10307;40.100;18.336;2022-12-07T08:01:27;12.80;99.90
20297;DHT22;10307;40.100;18.336;2022-12-07T08:03:54;12.90;99.90
20297;DHT22;10307;40.100;18.336;2022-12-07T08:06:20;12.90;99.90
20297;DHT22;10307;40.100;18.336;2022-12-07T08:08:46;13.00;99.90
20297;DHT22;10307;40.100;18.336;2022-12-07T08:11:13;13.10;99.90
20297;DHT22;10307;40.100;18.336;2022-12-07T08:13:39;13.10;99.90
20297;DHT22;10307;40.100;18.336;2022-12-07T08:16:08;13.20;99.90
20297;DHT22;10307;40.100;18.336;2022-12-07T08:18:36;13.20;99.90
20297;DHT22;10307;40.100;18.336;2022-12-07T08:21:03;13.30;99.90
20297;DHT22;10307;40.100;18.336;2022-12-07T08:23:32;13.40;99.90
20297;DHT22;10307;40.100;18.336;2022-12-07T08:26:03;13.40;99.90
20297;DHT22;10307;40.100;18.336;2022-12-07T08:28:30;13.50;99.90
20297;DHT22;10307;40.100;18.336;2022-12-07T08:31:04;13.60;99.90
20297;DHT22;10307;40.100;18.336;2022-12-07T08:33:30;13.70;99.90
20297;DHT22;10307;40.100;18.336;2022-12-07T08:36:08;13.80;99.90
20297;DHT22;10307;40.100;18.336;2022-12-07T08:38:36;13.90;99.90
20297;DHT22;10307;40.100;18.336;2022-12-07T08:41:03;14.00;99.90
20297;DHT22;10307;40.100;18.336;2022-12-07T08:43:30;14.10;99.90
20297;DHT22;10307;40.100;18.336;2022-12-07T08:48:32;14.20;99.90
20297;DHT22;10307;40.100;18.336;2022-12-07T08:50:58;14.30;99.90
20297;DHT22;10307;40.100;18.336;2022-12-07T08:53:27;14.30;99.90
20297;DHT22;10307;40.100;18.336;2022-12-07T08:55:55;14.40;99.90
20297;DHT22;10307;40.100;18.336;2022-12-07T08:58:23;14.50;99.90
20297;DHT22;10307;40.100;18.336;2022-12-07T09:00:49;14.50;99.90
20297;DHT22;10307;40.100;18.336;2022-12-07T09:03:15;14.60;99.90
20297;DHT22;10307;40.100;18.336;2022-12-07T09:05:42;14.60;99.90
20297;DHT22;10307;40.100;18.336;2022-12-07T09:08:08;14.80;99.90
20297;DHT22;10307;40.100;18.336;2022-12-07T09:10:34;14.90;99.90
20297;DHT22;10307;40.100;18.336;2022-12-07T09:13:01;14.90;99.90
20297;DHT22;10307;40.100;18.336;2022-12-07T09:15:30;15.00;99.90
20297;DHT22;10307;40.100;18.336;2022-12-07T09:17:57;15.10;99.90
20297;DHT22;10307;40.100;18.336;2022-12-07T09:20:23;15.10;99.90
20297;DHT22;10307;40.100;18.336;2022-12-07T09:22:50;15.20;99.90
20297;DHT22;10307;40.100;18.336;2022-12-07T09:25:17;15.30;99.90
20297;DHT22;10307;40.100;18.336;2022-12-07T09:27:43;15.40;99.90
20297;DHT22;10307;40.100;18.336;2022-12-07T09:30:09;15.40;99.90
20297;DHT22;10307;40.100;18.336;2022-12-07T09:32:36;15.50;99.90
20297;DHT22;10307;40.100;18.336;2022-12-07T09:35:03;15.50;99.90
20297;DHT22;10307;40.100;18.336;2022-12-07T09:37:29;15.50;99.90
20297;DHT22;10307;40.100;18.336;2022-12-07T09:39:57;15.60;99.90
20297;DHT22;10307;40.100;18.336;2022-12-07T09:42:34;15.70;99.90
20297;DHT22;10307;40.100;18.336;2022-12-07T09:45:02;15.70;99.90
20297;DHT22;10307;40.100;18.336;2022-12-07T09:47:32;15.80;99.90
20297;DHT22;10307;40.100;18.336;2022-12-07T09:50:21;15.90;99.90
20297;DHT22;10307;40.100;18.336;2022-12-07T09:52:49;15.90;99.90
20297;DHT22;10307;40.100;18.336;2022-12-07T09:55:28;16.00;99.90
20297;DHT22;10307;40.100;18.336;2022-12-07T09:57:56;16.10;99.90
20297;DHT22;10307;40.100;18.336;2022-12-07T10:00:23;16.10;99.90
20297;DHT22;10307;40.100;18.336;2022-12-07T10:02:57;16.20;99.90
20297;DHT22;10307;40.100;18.336;2022-12-07T10:05:34;16.20;99.90
20297;DHT22;10307;40.100;18.336;2022-12-07T10:08:03;16.20;99.90
20297;DHT22;10307;40.100;18.336;2022-12-07T10:10:32;16.30;99.90
20297;DHT22;10307;40.100;18.336;2022-12-07T10:13:01;16.20;99.90
20297;DHT22;10307;40.100;18.336;2022-12-07T10:15:54;16.20;99.90
20297;DHT22;10307;40.100;18.336;2022-12-07T10:18:41;16.10;99.90
20297;DHT22;10307;40.100;18.336;2022-12-07T10:21:15;16.00;99.90
20297;DHT22;10307;40.100;18.336;2022-12-07T10:24:01;15.80;99.90
20297;DHT22;10307;40.100;18.336;2022-12-07T10:27:01;15.70;99.90
20297;DHT22;10307;40.100;18.336;2022-12-07T10:29:30;15.60;99.90
20297;DHT22;10307;40.100;18.336;2022-12-07T10:32:01;15.60;99.90
20297;DHT22;10307;40.100;18.336;2022-12-07T10:34:36;15.70;99.90
20297;DHT22;10307;40.100;18.336;2022-12-07T10:39:53;15.80;99.90
20297;DHT22;10307;40.100;18.336;2022-12-07T10:42:28;15.80;99.90
20297;DHT22;10307;40.100;18.336;2022-12-07T11:04:13;16.10;99.90
20297;DHT22;10307;40.100;18.336;2022-12-07T11:06:49;16.10;99.90
20297;DHT22;10307;40.100;18.336;2022-12-07T11:14:59;16.20;99.90
20297;DHT22;10307;40.100;18.336;2022-12-07T11:17:36;16.20;99.90
20297;DHT22;10307;40.100;18.336;2022-12-07T11:20:32;16.30;99.90
20297;DHT22;10307;40.100;18.336;2022-12-07T11:23:15;16.30;99.90
20297;DHT22;10307;40.100;18.336;2022-12-07T11:25:51;16.30;99.90
20297;DHT22;10307;40.100;18.336;2022-12-07T11:31:05;16.30;99.90
20297;DHT22;10307;40.100;18.336;2022-12-07T11:34:00;16.40;99.90
20297;DHT22;10307;40.100;18.336;2022-12-07T11:36:43;16.40;99.90
20297;DHT22;10307;40.100;18.336;2022-12-07T11:39:26;16.40;99.90
20297;DHT22;10307;40.100;18.336;2022-12-07T11:42:06;16.40;99.90
20297;DHT22;10307;40.100;18.336;2022-12-07T11:44:38;16.50;99.90
20297;DHT22;10307;40.100;18.336;2022-12-07T11:47:13;16.50;99.90
20297;DHT22;10307;40.100;18.336;2022-12-07T11:53:01;16.50;99.90
20297;DHT22;10307;40.100;18.336;2022-12-07T11:55:40;16.50;99.90
20297;DHT22;10307;40.100;18.336;2022-12-07T12:06:42;16.50;99.90
20297;DHT22;10307;40.100;18.336;2022-12-07T12:18:34;16.40;99.90
20297;DHT22;10307;40.100;18.336;2022-12-07T12:21:12;16.40;99.90
20297;DHT22;10307;40.100;18.336;2022-12-07T12:24:12;16.40;99.90
20297;DHT22;10307;40.100;18.336;2022-12-07T12:26:50;16.40;99.90
20297;DHT22;10307;40.100;18.336;2022-12-07T12:29:27;16.40;99.90
20297;DHT22;10307;40.100;18.336;2022-12-07T12:32:17;16.40;99.90
20297;DHT22;10307;40.100;18.336;2022-12-07T12:37:53;16.40;99.90
20297;DHT22;10307;40.100;18.336;2022-12-07T12:42:55;16.30;99.90
20297;DHT22;10307;40.100;18.336;2022-12-07T12:45:23;16.30;99.90
20297;DHT22;10307;40.100;18.336;2022-12-07T12:50:36;16.30;99.90
20297;DHT22;10307;40.100;18.336;2022-12-07T12:53:23;16.30;99.90
20297;DHT22;10307;40.100;18.336;2022-12-07T12:55:58;16.20;99.90
20297;DHT22;10307;40.100;18.336;2022-12-07T12:58:31;16.20;99.90
20297;DHT22;10307;40.100;18.336;2022-12-07T13:04:02;16.20;99.90
20297;DHT22;10307;40.100;18.336;2022-12-07T13:06:35;16.20;99.90
20297;DHT22;10307;40.100;18.336;2022-12-07T13:09:04;16.20;99.90
20297;DHT22;10307;40.100;18.336;2022-12-07T13:11:39;16.20;99.90
20297;DHT22;10307;40.100;18.336;2022-12-07T13:14:42;16.20;99.90
20297;DHT22;10307;40.100;18.336;2022-12-07T13:17:11;16.20;99.90
20297;DHT22;10307;40.100;18.336;2022-12-07T13:27:57;16.10;99.90
20297;DHT22;10307;40.100;18.336;2022-12-07T13:30:24;16.10;99.90
20297;DHT22;10307;40.100;18.336;2022-12-07T13:32:57;16.10;99.90
20297;DHT22;10307;40.100;18.336;2022-12-07T13:35:29;16.10;99.90
20297;DHT22;10307;40.100;18.336;2022-12-07T13:37:56;16.10;99.90
20297;DHT22;10307;40.100;18.336;2022-12-07T13:40:23;16.00;99.90
20297;DHT22;10307;40.100;18.336;2022-12-07T13:43:02;16.00;99.90
20297;DHT22;10307;40.100;18.336;2022-12-07T13:45:33;16.00;99.90
20297;DHT22;10307;40.100;18.336;2022-12-07T13:50:56;16.00;99.90
20297;DHT22;10307;40.100;18.336;2022-12-07T13:53:23;16.00;99.90
20297;DHT22;10307;40.100;18.336;2022-12-07T13:56:03;15.90;99.90
20297;DHT22;10307;40.100;18.336;2022-12-07T13:58:31;15.90;99.90
20297;DHT22;10307;40.100;18.336;2022-12-07T14:00:59;15.90;99.90
20297;DHT22;10307;40.100;18.336;2022-12-07T14:03:30;15.90;99.90
20297;DHT22;10307;40.100;18.336;2022-12-07T14:08:31;15.80;99.90
20297;DHT22;10307;40.100;18.336;2022-12-07T14:10:58;15.80;99.90
20297;DHT22;10307;40.100;18.336;2022-12-07T14:15:58;15.70;99.90
20297;DHT22;10307;40.100;18.336;2022-12-07T14:18:34;15.60;99.90
20297;DHT22;10307;40.100;18.336;2022-12-07T14:21:24;15.60;99.90
20297;DHT22;10307;40.100;18.336;2022-12-07T14:26:39;15.50;99.90
20297;DHT22;10307;40.100;18.336;2022-12-07T14:32:20;15.50;99.90
20297;DHT22;10307;40.100;18.336;2022-12-07T14:34:59;15.40;99.90
20297;DHT22;10307;40.100;18.336;2022-12-07T14:37:28;15.40;99.90
20297;DHT22;10307;40.100;18.336;2022-12-07T14:39:55;15.40;99.90
20297;DHT22;10307;40.100;18.336;2022-12-07T14:42:24;15.30;99.90
20297;DHT22;10307;40.100;18.336;2022-12-07T14:44:52;15.30;99.90
20297;DHT22;10307;40.100;18.336;2022-12-07T14:47:19;15.30;99.90
20297;DHT22;10307;40.100;18.336;2022-12-07T14:49:45;15.20;99.90
20297;DHT22;10307;40.100;18.336;2022-12-07T14:52:18;15.20;99.90
20297;DHT22;10307;40.100;18.336;2022-12-07T14:54:46;15.10;99.90
20297;DHT22;10307;40.100;18.336;2022-12-07T14:57:12;15.10;99.90
20297;DHT22;10307;40.100;18.336;2022-12-07T14:59:39;15.10;99.90
20297;DHT22;10307;40.100;18.336;2022-12-07T15:02:08;15.00;99.90
20297;DHT22;10307;40.100;18.336;2022-12-07T15:04:35;15.00;99.90
20297;DHT22;10307;40.100;18.336;2022-12-07T15:07:03;15.00;99.90
20297;DHT22;10307;40.100;18.336;2022-12-07T15:09:31;14.90;99.90
20297;DHT22;10307;40.100;18.336;2022-12-07T15:11:57;14.90;99.90
20297;DHT22;10307;40.100;18.336;2022-12-07T15:14:24;14.90;99.90
20297;DHT22;10307;40.100;18.336;2022-12-07T15:16:50;14.90;99.90
20297;DHT22;10307;40.100;18.336;2022-12-07T15:19:19;14.90;99.90
20297;DHT22;10307;40.100;18.336;2022-12-07T15:21:49;14.80;99.90
20297;DHT22;10307;40.100;18.336;2022-12-07T15:24:16;14.80;99.90
20297;DHT22;10307;40.100;18.336;2022-12-07T15:26:43;14.70;99.90
20297;DHT22;10307;40.100;18.336;2022-12-07T15:29:10;14.80;99.90
20297;DHT22;10307;40.100;18.336;2022-12-07T15:31:38;14.70;99.90
20297;DHT22;10307;40.100;18.336;2022-12-07T15:34:04;14.70;99.90
20297;DHT22;10307;40.100;18.336;2022-12-07T15:36:32;14.70;99.90
20297;DHT22;10307;40.100;18.336;2022-12-07T15:38:59;14.60;99.90
20297;DHT22;10307;40.100;18.336;2022-12-07T15:41:26;14.70;99.90
20297;DHT22;10307;40.100;18.336;2022-12-07T15:43:53;14.60;99.90
20297;DHT22;10307;40.100;18.336;2022-12-07T15:46:39;14.60;99.90
20297;DHT22;10307;40.100;18.336;2022-12-07T15:49:10;14.60;99.90
20297;DHT22;10307;40.100;18.336;2022-12-07T15:51:37;14.60;99.90
20297;DHT22;10307;40.100;18.336;2022-12-07T15:54:03;14.50;99.90
20297;DHT22;10307;40.100;18.336;2022-12-07T15:56:29;14.50;99.90
20297;DHT22;10307;40.100;18.336;2022-12-07T15:58:56;14.50;99.90
20297;DHT22;10307;40.100;18.336;2022-12-07T16:01:23;14.50;99.90
20297;DHT22;10307;40.100;18.336;2022-12-07T16:03:49;14.50;99.90
20297;DHT22;10307;40.100;18.336;2022-12-07T16:06:17;14.40;99.90
20297;DHT22;10307;40.100;18.336;2022-12-07T16:08:45;14.40;99.90
20297;DHT22;10307;40.100;18.336;2022-12-07T16:11:12;14.40;99.90
20297;DHT22;10307;40.100;18.336;2022-12-07T16:13:38;14.40;99.90
20297;DHT22;10307;40.100;18.336;2022-12-07T16:16:08;14.30;99.90
20297;DHT22;10307;40.100;18.336;2022-12-07T16:18:35;14.30;99.90
20297;DHT22;10307;40.100;18.336;2022-12-07T16:21:02;14.30;99.90
20297;DHT22;10307;40.100;18.336;2022-12-07T16:23:29;14.30;99.90
20297;DHT22;10307;40.100;18.336;2022-12-07T16:26:06;14.30;99.90
20297;DHT22;10307;40.100;18.336;2022-12-07T16:28:33;14.20;99.90
20297;DHT22;10307;40.100;18.336;2022-12-07T16:31:01;14.30;99.90
20297;DHT22;10307;40.100;18.336;2022-12-07T16:33:28;14.20;99.90
20297;DHT22;10307;40.100;18.336;2022-12-07T16:35:55;14.20;99.90
20297;DHT22;10307;40.100;18.336;2022-12-07T16:38:22;14.20;99.90
20297;DHT22;10307;40.100;18.336;2022-12-07T16:40:48;14.20;99.90
20297;DHT22;10307;40.100;18.336;2022-12-07T16:43:14;14.10;99.90
20297;DHT22;10307;40.100;18.336;2022-12-07T16:45:41;14.10;99.90
20297;DHT22;10307;40.100;18.336;2022-12-07T16:48:07;14.10;99.90
20297;DHT22;10307;40.100;18.336;2022-12-07T16:50:33;14.10;99.90
20297;DHT22;10307;40.100;18.336;2022-12-07T16:53:00;14.10;99.90
20297;DHT22;10307;40.100;18.336;2022-12-07T16:55:26;14.00;99.90
20297;DHT22;10307;40.100;18.336;2022-12-07T16:57:53;14.00;99.90
20297;DHT22;10307;40.100;18.336;2022-12-07T17:00:19;14.00;99.90
20297;DHT22;10307;40.100;18.336;2022-12-07T17:02:46;14.00;99.90
20297;DHT22;10307;40.100;18.336;2022-12-07T17:05:12;14.00;99.90
20297;DHT22;10307;40.100;18.336;2022-12-07T17:07:39;14.00;99.90
20297;DHT22;10307;40.100;18.336;2022-12-07T17:10:05;14.00;99.90
20297;DHT22;10307;40.100;18.336;2022-12-07T17:12:32;14.00;99.90
20297;DHT22;10307;40.100;18.336;2022-12-07T17:14:58;14.00;99.90
20297;DHT22;10307;40.100;18.336;2022-12-07T17:17:51;14.00;99.90
20297;DHT22;10307;40.100;18.336;2022-12-07T17:20:18;14.00;99.90
20297;DHT22;10307;40.100;18.336;2022-12-07T17:22:45;14.00;99.90
20297;DHT22;10307;40.100;18.336;2022-12-07T17:25:12;14.00;99.90
20297;DHT22;10307;40.100;18.336;2022-12-07T17:27:38;14.00;99.90
20297;DHT22;10307;40.100;18.336;2022-12-07T17:30:05;13.90;99.90
20297;DHT22;10307;40.100;18.336;2022-12-07T17:32:32;13.90;99.90
20297;DHT22;10307;40.100;18.336;2022-12-07T17:34:58;13.90;99.90
20297;DHT22;10307;40.100;18.336;2022-12-07T17:37:26;13.90;99.90